Time,TemperatureF,DewpointF,PressureIn,WindDirection,WindDirectionDegrees,WindSpeedMPH,WindSpeedGustMPH,Humidity,HourlyPrecipIn,Conditions,Clouds,dailyrainin,SoftwareType,DateUTC
2013-02-23 07:15:00,38.3,35.1,30.18,WSW,239,16.0,16.0,88,0.10,,,0.14,Wunderground v.1.15,2013-02-23 15:15:00,
2013-02-23 07:20:00,38.5,35.0,30.18,West,269,11.0,16.0,87,0.08,,,0.14,Wunderground v.1.15,2013-02-23 15:20:00,
2013-02-23 07:25:00,38.7,34.9,30.18,West,276,10.0,10.0,86,0.05,,,0.14,Wunderground v.1.15,2013-02-23 15:25:00,
2013-02-23 07:35:00,39.4,35.0,30.18,WSW,252,11.0,11.0,84,0.00,,,0.14,Wunderground v.1.15,2013-02-23 15:35:00,
2013-02-23 07:40:00,39.8,34.8,30.18,WSW,247,13.0,13.0,82,0.00,,,0.14,Wunderground v.1.15,2013-02-23 15:40:00,
2013-02-23 07:45:00,39.7,35.0,30.18,WSW,248,13.0,13.0,83,0.00,,,0.14,Wunderground v.1.15,2013-02-23 15:45:00,
2013-02-23 07:50:00,40.3,34.9,30.19,West,279,12.0,18.0,81,0.00,,,0.14,Wunderground v.1.15,2013-02-23 15:50:00,
2013-02-23 07:55:00,40.3,35.2,30.19,West,267,15.0,15.0,82,0.00,,,0.14,Wunderground v.1.15,2013-02-23 15:55:00,
2013-02-23 08:00:00,40.0,35.3,30.20,West,277,16.0,16.0,83,0.00,,,0.14,Wunderground v.1.15,2013-02-23 16:00:00,
2013-02-23 08:05:00,40.0,35.6,30.20,West,275,16.0,16.0,84,0.00,,,0.14,Wunderground v.1.15,2013-02-23 16:05:00,
2013-02-23 08:10:00,40.0,35.6,30.20,WNW,284,15.0,15.0,84,0.00,,,0.14,Wunderground v.1.15,2013-02-23 16:10:00,
2013-02-23 08:20:00,39.9,35.5,30.21,West,277,12.0,12.0,84,0.00,,,0.14,Wunderground v.1.15,2013-02-23 16:20:00,
2013-02-23 08:25:00,39.8,35.7,30.21,WSW,257,12.0,13.0,85,0.00,,,0.14,Wunderground v.1.15,2013-02-23 16:25:00,
2013-02-23 08:30:00,39.8,35.7,30.21,West,272,11.0,11.0,85,0.00,,,0.14,Wunderground v.1.15,2013-02-23 16:30:00,
2013-02-23 08:35:00,40.0,35.6,30.21,West,267,10.0,12.0,84,0.00,,,0.14,Wunderground v.1.15,2013-02-23 16:35:00,
2013-02-23 08:40:00,40.3,35.8,30.22,WNW,284,11.0,13.0,84,0.00,,,0.14,Wunderground v.1.15,2013-02-23 16:40:00,
2013-02-23 08:45:00,40.6,35.8,30.23,WNW,284,12.0,13.0,83,0.00,,,0.14,Wunderground v.1.15,2013-02-23 16:45:00,
2013-02-23 08:50:00,40.8,35.7,30.24,NW,310,11.0,11.0,82,0.00,,,0.14,Wunderground v.1.15,2013-02-23 16:50:00,
2013-02-23 08:55:00,40.4,36.2,30.24,WNW,298,9.0,11.0,85,0.00,,,0.14,Wunderground v.1.15,2013-02-23 16:55:00,
2013-02-23 09:00:00,39.9,36.1,30.24,WNW,299,6.0,7.0,86,0.00,,,0.14,Wunderground v.1.15,2013-02-23 17:00:00,
2013-02-23 09:05:00,39.9,35.8,30.24,West,280,6.0,9.0,85,0.00,,,0.14,Wunderground v.1.15,2013-02-23 17:05:00,
2013-02-23 09:15:00,40.7,35.9,30.25,WNW,288,11.0,18.0,83,0.00,,,0.14,Wunderground v.1.15,2013-02-23 17:15:00,
2013-02-23 09:20:00,40.5,35.1,30.24,West,261,11.0,11.0,81,0.00,,,0.14,Wunderground v.1.15,2013-02-23 17:20:00,
2013-02-23 09:25:00,40.5,35.1,30.25,West,269,11.0,11.0,81,0.00,,,0.14,Wunderground v.1.15,2013-02-23 17:25:00,
2013-02-23 09:30:00,40.5,35.1,30.25,WSW,254,10.0,10.0,81,0.00,,,0.14,Wunderground v.1.15,2013-02-23 17:30:00,
2013-02-23 09:35:00,40.7,35.6,30.25,West,278,10.0,10.0,82,0.00,,,0.14,Wunderground v.1.15,2013-02-23 17:35:00,
2013-02-23 09:40:00,40.7,35.9,30.26,West,278,9.0,9.0,83,0.00,,,0.14,Wunderground v.1.15,2013-02-23 17:40:00,
2013-02-23 09:45:00,41.0,36.5,30.26,West,274,9.0,10.0,84,0.00,,,0.14,Wunderground v.1.15,2013-02-23 17:45:00,
2013-02-23 09:50:00,41.3,36.5,30.26,West,276,9.0,13.0,83,0.00,,,0.14,Wunderground v.1.15,2013-02-23 17:50:00,
2013-02-23 09:55:00,41.5,36.7,30.26,WSW,250,10.0,13.0,83,0.00,,,0.14,Wunderground v.1.15,2013-02-23 17:55:00,
2013-02-23 10:00:00,41.9,37.1,30.26,West,260,10.0,10.0,83,0.00,,,0.14,Wunderground v.1.15,2013-02-23 18:00:00,
2013-02-23 10:05:00,42.1,37.0,30.26,West,270,10.0,10.0,82,0.00,,,0.14,Wunderground v.1.15,2013-02-23 18:05:00,
2013-02-23 10:10:00,42.2,37.1,30.26,West,277,10.0,12.0,82,0.00,,,0.14,Wunderground v.1.15,2013-02-23 18:10:00,
2013-02-23 10:15:00,42.4,37.0,30.26,West,273,11.0,14.0,81,0.00,,,0.14,Wunderground v.1.15,2013-02-23 18:15:00,
2013-02-23 10:20:00,42.4,37.0,30.26,West,267,11.0,11.0,81,0.00,,,0.14,Wunderground v.1.15,2013-02-23 18:20:00,
2013-02-23 10:25:00,42.6,37.5,30.26,West,259,10.0,11.0,82,0.00,,,0.14,Wunderground v.1.15,2013-02-23 18:25:00,
2013-02-23 10:30:00,42.6,37.5,30.27,West,263,9.0,9.0,82,0.00,,,0.14,Wunderground v.1.15,2013-02-23 18:30:00,
2013-02-23 10:35:00,42.2,36.8,30.28,WNW,283,9.0,25.0,81,0.71,,,0.16,Wunderground v.1.15,2013-02-23 18:35:00,
2013-02-23 10:40:00,40.9,36.4,30.28,West,278,13.0,16.0,84,0.11,,,0.16,Wunderground v.1.15,2013-02-23 18:40:00,
2013-02-23 10:50:00,41.7,35.7,30.28,WNW,282,13.0,15.0,79,0.04,,,0.16,Wunderground v.1.15,2013-02-23 18:50:00,
2013-02-23 10:55:00,41.9,35.9,30.28,WNW,284,14.0,15.0,79,0.00,,,0.16,Wunderground v.1.15,2013-02-23 18:55:00,
2013-02-23 11:05:00,42.3,35.6,30.28,WNW,284,14.0,19.0,77,0.00,,,0.16,Wunderground v.1.15,2013-02-23 19:05:00,
2013-02-23 11:10:00,42.4,36.0,30.29,West,268,14.0,14.0,78,0.00,,,0.16,Wunderground v.1.15,2013-02-23 19:10:00,
2013-02-23 11:20:00,42.8,36.4,30.29,West,274,10.0,10.0,78,0.00,,,0.16,Wunderground v.1.15,2013-02-23 19:20:00,
2013-02-23 11:25:00,43.1,36.7,30.29,West,269,10.0,10.0,78,0.00,,,0.16,Wunderground v.1.15,2013-02-23 19:25:00,
2013-02-23 11:30:00,42.7,36.3,30.30,West,277,12.0,14.0,78,0.00,,,0.16,Wunderground v.1.15,2013-02-23 19:30:00,
2013-02-23 11:35:00,41.8,35.1,30.30,West,261,13.0,17.0,77,0.00,,,0.16,Wunderground v.1.15,2013-02-23 19:35:00,
2013-02-23 11:40:00,41.4,34.4,30.30,WSW,254,13.0,13.0,76,0.00,,,0.16,Wunderground v.1.15,2013-02-23 19:40:00,
2013-02-23 11:45:00,41.5,34.5,30.31,West,265,14.0,14.0,76,0.00,,,0.16,Wunderground v.1.15,2013-02-23 19:45:00,
2013-02-23 11:50:00,41.5,35.2,30.30,WSW,258,13.0,13.0,78,0.00,,,0.16,Wunderground v.1.15,2013-02-23 19:50:00,
2013-02-23 11:55:00,41.7,35.3,30.30,WNW,293,12.0,14.0,78,0.00,,,0.16,Wunderground v.1.15,2013-02-23 19:55:00,
2013-02-23 12:00:00,41.7,35.7,30.31,WSW,252,13.0,14.0,79,0.00,,,0.16,Wunderground v.1.15,2013-02-23 20:00:00,
2013-02-23 12:05:00,41.8,35.4,30.31,WSW,254,13.0,14.0,78,0.00,,,0.16,Wunderground v.1.15,2013-02-23 20:05:00,
2013-02-23 12:10:00,42.0,36.0,30.31,WNW,284,13.0,16.0,79,0.00,,,0.16,Wunderground v.1.15,2013-02-23 20:10:00,
2013-02-23 12:15:00,42.2,36.2,30.30,WSW,258,12.0,16.0,79,0.00,,,0.16,Wunderground v.1.15,2013-02-23 20:15:00,
2013-02-23 12:20:00,42.5,35.8,30.30,West,277,13.0,15.0,77,0.00,,,0.16,Wunderground v.1.15,2013-02-23 20:20:00,
2013-02-23 12:25:00,42.4,36.3,30.30,WSW,256,14.0,15.0,79,0.00,,,0.16,Wunderground v.1.15,2013-02-23 20:25:00,
2013-02-23 12:30:00,42.5,36.4,30.31,West,275,14.0,14.0,79,0.00,,,0.16,Wunderground v.1.15,2013-02-23 20:30:00,
2013-02-23 12:35:00,42.7,36.6,30.31,West,269,13.0,14.0,79,0.00,,,0.16,Wunderground v.1.15,2013-02-23 20:35:00,
2013-02-23 12:40:00,42.8,36.7,30.31,West,275,12.0,12.0,79,0.00,,,0.16,Wunderground v.1.15,2013-02-23 20:40:00,
2013-02-23 12:50:00,42.9,36.8,30.30,WSW,248,12.0,12.0,79,0.00,,,0.16,Wunderground v.1.15,2013-02-23 20:50:00,
2013-02-23 12:55:00,43.0,36.3,30.30,SW,223,12.0,17.0,77,0.00,,,0.16,Wunderground v.1.15,2013-02-23 20:55:00,
2013-02-23 13:00:00,43.1,36.4,30.30,West,267,13.0,13.0,77,0.00,,,0.16,Wunderground v.1.15,2013-02-23 21:00:00,
2013-02-23 13:05:00,43.0,36.9,30.30,West,277,13.0,15.0,79,0.00,,,0.16,Wunderground v.1.15,2013-02-23 21:05:00,
2013-02-23 13:10:00,43.1,36.7,30.30,WNW,284,13.0,18.0,78,0.00,,,0.16,Wunderground v.1.15,2013-02-23 21:10:00,
2013-02-23 13:15:00,43.3,36.6,30.30,West,272,14.0,18.0,77,0.00,,,0.16,Wunderground v.1.15,2013-02-23 21:15:00,
2013-02-23 13:20:00,43.5,36.4,30.30,West,269,15.0,18.0,76,0.00,,,0.16,Wunderground v.1.15,2013-02-23 21:20:00,
2013-02-23 13:25:00,43.6,35.5,30.30,West,273,16.0,18.0,73,0.00,,,0.16,Wunderground v.1.15,2013-02-23 21:25:00,
2013-02-23 13:30:00,43.7,36.0,30.30,WSW,250,16.0,18.0,74,0.00,,,0.16,Wunderground v.1.15,2013-02-23 21:30:00,
2013-02-23 13:35:00,43.7,35.6,30.30,West,267,14.0,18.0,73,0.00,,,0.16,Wunderground v.1.15,2013-02-23 21:35:00,
2013-02-23 13:40:00,43.8,35.4,30.30,WSW,244,15.0,20.0,72,0.00,,,0.16,Wunderground v.1.15,2013-02-23 21:40:00,
2013-02-23 13:45:00,43.9,35.5,30.31,West,267,15.0,20.0,72,0.00,,,0.16,Wunderground v.1.15,2013-02-23 21:45:00,
2013-02-23 13:50:00,43.8,35.4,30.31,West,281,16.0,16.0,72,0.00,,,0.16,Wunderground v.1.15,2013-02-23 21:50:00,
2013-02-23 13:55:00,43.5,35.8,30.31,West,275,16.0,16.0,74,0.00,,,0.16,Wunderground v.1.15,2013-02-23 21:55:00,
2013-02-23 14:00:00,43.4,35.0,30.31,WSW,252,15.0,19.0,72,0.00,,,0.16,Wunderground v.1.15,2013-02-23 22:00:00,
2013-02-23 20:40:00,39.0,36.3,30.41,ESE,121,1.0,1.0,90,0.00,,,0.18,Wunderground v.1.15,2013-02-24 04:40:00,
2013-02-23 20:45:00,39.0,36.3,30.41,ESE,121,1.0,2.0,90,0.00,,,0.18,Wunderground v.1.15,2013-02-24 04:45:00,
2013-02-23 20:50:00,38.9,36.2,30.41,ESE,121,2.0,2.0,90,0.00,,,0.18,Wunderground v.1.15,2013-02-24 04:50:00,
2013-02-23 20:55:00,38.9,36.2,30.41,ESE,111,1.0,2.0,90,0.00,,,0.18,Wunderground v.1.15,2013-02-24 04:55:00,
2013-02-23 21:00:00,38.8,36.1,30.41,East,95,1.0,1.0,90,0.00,,,0.18,Wunderground v.1.15,2013-02-24 05:00:00,
2013-02-23 21:05:00,38.8,36.1,30.41,East,95,1.0,3.0,90,0.00,,,0.18,Wunderground v.1.15,2013-02-24 05:05:00,
2013-02-23 21:10:00,38.9,36.2,30.41,East,95,1.0,2.0,90,0.00,,,0.18,Wunderground v.1.15,2013-02-24 05:10:00,
2013-02-23 21:15:00,38.9,36.2,30.41,East,95,1.0,2.0,90,0.00,,,0.18,Wunderground v.1.15,2013-02-24 05:15:00,
2013-02-23 21:20:00,39.0,36.3,30.41,East,95,0.0,0.0,90,0.00,,,0.18,Wunderground v.1.15,2013-02-24 05:20:00,
2013-02-23 21:25:00,39.0,36.3,30.41,SSE,163,0.0,1.0,90,0.00,,,0.18,Wunderground v.1.15,2013-02-24 05:25:00,
2013-02-23 21:30:00,39.1,36.1,30.41,SSE,162,1.0,1.0,89,0.00,,,0.18,Wunderground v.1.15,2013-02-24 05:30:00,
2013-02-23 21:35:00,39.2,36.2,30.41,SE,126,1.0,1.0,89,0.00,,,0.18,Wunderground v.1.15,2013-02-24 05:35:00,
2013-02-23 21:45:00,39.3,36.3,30.41,SSE,147,2.0,2.0,89,0.00,,,0.18,Wunderground v.1.15,2013-02-24 05:45:00,
2013-02-23 21:50:00,39.4,36.4,30.41,SSE,147,1.0,1.0,89,0.00,,,0.18,Wunderground v.1.15,2013-02-24 05:50:00,
2013-02-23 21:55:00,39.3,36.3,30.41,SSE,147,0.0,1.0,89,0.00,,,0.18,Wunderground v.1.15,2013-02-24 05:55:00,
2013-02-23 22:00:00,39.2,36.2,30.41,SSE,147,0.0,0.0,89,0.00,,,0.18,Wunderground v.1.15,2013-02-24 06:00:00,
2013-02-23 22:05:00,39.1,36.1,30.41,SSE,147,0.0,0.0,89,0.00,,,0.18,Wunderground v.1.15,2013-02-24 06:05:00,
2013-02-23 22:10:00,39.0,36.0,30.41,SSE,147,0.0,0.0,89,0.00,,,0.18,Wunderground v.1.15,2013-02-24 06:10:00,
2013-02-23 22:15:00,38.9,35.9,30.41,SSE,147,0.0,0.0,89,0.00,,,0.18,Wunderground v.1.15,2013-02-24 06:15:00,
2013-02-23 22:20:00,38.8,36.1,30.42,SSE,147,0.0,0.0,90,0.00,,,0.18,Wunderground v.1.15,2013-02-24 06:20:00,
2013-02-23 22:25:00,38.7,35.7,30.42,SSE,147,0.0,0.0,89,0.00,,,0.18,Wunderground v.1.15,2013-02-24 06:25:00,
2013-02-23 22:30:00,38.7,36.0,30.42,SSE,147,0.0,0.0,90,0.00,,,0.18,Wunderground v.1.15,2013-02-24 06:30:00,
2013-02-23 22:35:00,38.7,36.0,30.42,SSE,147,0.0,0.0,90,0.00,,,0.18,Wunderground v.1.15,2013-02-24 06:35:00,
2013-02-23 22:40:00,38.6,35.9,30.42,SSE,147,0.0,0.0,90,0.00,,,0.18,Wunderground v.1.15,2013-02-24 06:40:00,
2013-02-23 22:45:00,38.6,36.2,30.42,SSE,147,0.0,0.0,91,0.00,,,0.18,Wunderground v.1.15,2013-02-24 06:45:00,
2013-02-23 22:50:00,38.6,36.2,30.42,SSE,147,0.0,0.0,91,0.00,,,0.18,Wunderground v.1.15,2013-02-24 06:50:00,
2013-02-23 22:55:00,38.6,36.2,30.42,SSE,147,0.0,0.0,91,0.00,,,0.18,Wunderground v.1.15,2013-02-24 06:55:00,
2013-02-23 23:00:00,38.6,36.2,30.42,SSE,147,0.0,0.0,91,0.00,,,0.18,Wunderground v.1.15,2013-02-24 07:00:00,
2013-02-23 23:05:00,38.7,36.6,30.43,West,269,2.0,3.0,92,0.00,,,0.18,Wunderground v.1.15,2013-02-24 07:05:00,
2013-02-23 23:10:00,38.7,36.6,30.43,WNW,298,3.0,3.0,92,0.00,,,0.19,Wunderground v.1.15,2013-02-24 07:10:00,
2013-02-23 23:15:00,38.7,36.6,30.43,NNW,334,1.0,3.0,92,0.00,,,0.19,Wunderground v.1.15,2013-02-24 07:15:00,
2013-02-23 23:20:00,38.7,36.3,30.42,NNE,33,1.0,1.0,91,0.00,,,0.19,Wunderground v.1.15,2013-02-24 07:20:00,
2013-02-23 23:25:00,38.7,36.6,30.42,NNE,33,1.0,1.0,92,0.00,,,0.19,Wunderground v.1.15,2013-02-24 07:25:00,
2013-02-23 23:30:00,38.7,36.6,30.42,NE,51,1.0,2.0,92,0.00,,,0.19,Wunderground v.1.15,2013-02-24 07:30:00,
2013-02-23 23:35:00,38.7,36.6,30.42,ENE,60,2.0,2.0,92,0.00,,,0.19,Wunderground v.1.15,2013-02-24 07:35:00,
2013-02-23 23:40:00,38.7,36.6,30.42,ENE,69,2.0,2.0,92,0.00,,,0.19,Wunderground v.1.15,2013-02-24 07:40:00,
2013-02-23 23:45:00,38.6,36.5,30.42,ENE,69,1.0,2.0,92,0.00,,,0.19,Wunderground v.1.15,2013-02-24 07:45:00,
2013-02-23 23:50:00,38.5,36.4,30.42,East,82,0.0,1.0,92,0.00,,,0.19,Wunderground v.1.15,2013-02-24 07:50:00,
2013-02-23 23:55:00,38.5,36.4,30.42,East,95,1.0,2.0,92,0.00,,,0.19,Wunderground v.1.15,2013-02-24 07:55:00,